createdAt,value
2018-12-03T00:00:51.408Z,99124.33
2018-12-03T00:01:54.579Z,99128.23
2018-12-03T00:02:58.213Z,99130.83
2018-12-03T00:04:05.171Z,99127.44
2018-12-03T00:05:06.932Z,99125.23
2018-12-03T00:06:08.705Z,99124.83
2018-12-03T00:07:10.473Z,99132.24
2018-12-03T00:08:12.209Z,99131.84
2018-12-03T00:09:14.127Z,99121.33
2018-12-03T00:10:15.874Z,99124.44
2018-12-03T00:11:17.641Z,99123.93
2018-12-03T00:12:19.397Z,99123.53
2018-12-03T00:13:21.145Z,99120.42
2018-12-03T00:14:22.897Z,99124.33
2018-12-03T00:15:31.186Z,99131.23
2018-12-03T00:16:32.983Z,99119.13
2018-12-03T00:17:34.731Z,99123.93
2018-12-03T00:18:36.497Z,99120.42
2018-12-03T00:19:38.257Z,99121.33
2018-12-03T00:20:40.017Z,99123.02
2018-12-03T00:21:43.382Z,99120.42
2018-12-03T00:22:45.146Z,99116.92
2018-12-03T00:23:46.907Z,99118.22
2018-12-03T00:24:48.671Z,99114.31
2018-12-03T00:25:50.446Z,99111.72
2018-12-03T00:26:52.233Z,99113.02
2018-12-03T00:27:54.010Z,99114.31
2018-12-03T00:28:55.798Z,99115.22
2018-12-03T00:29:57.885Z,99106.63
2018-12-03T00:30:59.685Z,99102.22
2018-12-03T00:32:01.482Z,99107.27
2018-12-03T00:33:03.290Z,99105.22
2018-12-03T00:34:05.060Z,99108.72
2018-12-03T00:35:06.826Z,99107.02
2018-12-03T00:36:08.599Z,99114.42
2018-12-03T00:37:11.321Z,99107.42
2018-12-03T00:38:13.068Z,99107.42
2018-12-03T00:39:14.820Z,99109.12
2018-12-03T00:40:16.635Z,99101.71
2018-12-03T00:41:18.418Z,99100.41
2018-12-03T00:42:20.189Z,99104.67
2018-12-03T00:43:21.933Z,99103.38
2018-12-03T00:44:23.704Z,99107.27
2018-12-03T00:45:25.467Z,99105.07
2018-12-03T00:46:27.224Z,99106.52
2018-12-03T00:47:28.993Z,99101.71
2018-12-03T00:48:30.746Z,99104.67
2018-12-03T00:49:32.527Z,99103.91
2018-12-03T00:50:34.329Z,99105.72
2018-12-03T00:51:36.099Z,99104.81
2018-12-03T00:52:37.898Z,99105.22
2018-12-03T00:53:39.671Z,99104.02
2018-12-03T00:54:41.423Z,99105.72
2018-12-03T00:55:43.197Z,99104.42
2018-12-03T00:56:45.057Z,99111.83
2018-12-03T00:57:46.845Z,99107.02
2018-12-03T00:58:48.631Z,99115.73
2018-12-03T00:59:50.402Z,99114.31
2018-12-03T01:00:52.181Z,99119.52
2018-12-03T01:01:53.942Z,99116.92
2018-12-03T01:02:55.707Z,99116.92
2018-12-03T01:03:57.479Z,99114.31
2018-12-03T01:04:59.262Z,99115.22
2018-12-03T01:06:01.066Z,99116.52
2018-12-03T01:07:03.661Z,99114.31
2018-12-03T01:08:05.474Z,99113.92
2018-12-03T01:09:07.232Z,99110.52
2018-12-03T01:10:08.988Z,99111.32
2018-12-03T01:11:10.754Z,99113.63
2018-12-03T01:12:12.523Z,99115.33
2018-12-03T01:13:14.309Z,99110.92
2018-12-03T01:14:16.073Z,99114.42
2018-12-03T01:15:17.848Z,99112.22
2018-12-03T01:16:19.610Z,99110.42
2018-12-03T01:17:21.398Z,99115.62
2018-12-03T01:18:23.296Z,99113.52
2018-12-03T01:19:25.064Z,99113.41
2018-12-03T01:20:26.848Z,99110.42
2018-12-03T01:21:28.612Z,99110.81
2018-12-03T01:22:30.380Z,99109.52
2018-12-03T01:23:32.155Z,99111.58
2018-12-03T01:24:33.934Z,99104.31
2018-12-03T01:25:35.687Z,99111.72
2018-12-03T01:26:37.433Z,99107.42
2018-12-03T01:27:39.194Z,99107.81
2018-12-03T01:28:40.982Z,99105.22
2018-12-03T01:29:42.751Z,99106.12
2018-12-03T01:30:44.520Z,99104.81
2018-12-03T01:31:46.272Z,99101.31
2018-12-03T01:32:48.031Z,99101.31
2018-12-03T01:33:49.829Z,99107.42
2018-12-03T01:34:51.605Z,99107.02
2018-12-03T01:35:53.362Z,99104.42
2018-12-03T01:36:55.126Z,99107.02
2018-12-03T01:37:56.876Z,99106.52
2018-12-03T01:38:58.642Z,99109.22
2018-12-03T01:40:00.390Z,99111.42
2018-12-03T01:41:02.147Z,99110.52
2018-12-03T01:42:03.906Z,99110.92
2018-12-03T01:43:05.932Z,99115.73
2018-12-03T01:44:07.700Z,99113.52
2018-12-03T01:45:09.481Z,99110.42
2018-12-03T01:46:11.236Z,99107.02
2018-12-03T01:47:12.988Z,99107.02
2018-12-03T01:48:14.740Z,99109.63
2018-12-03T01:49:16.514Z,99110.13
2018-12-03T01:50:18.260Z,99110.52
2018-12-03T01:51:20.035Z,99105.22
2018-12-03T01:52:21.786Z,99113.92
2018-12-03T01:53:23.537Z,99111.72
2018-12-03T01:54:25.314Z,99112.33
2018-12-03T01:55:27.086Z,99108.83
2018-12-03T01:56:28.844Z,99108.53
2018-12-03T01:57:30.598Z,99109.73
2018-12-03T01:58:32.354Z,99107.92
2018-12-03T01:59:34.120Z,99107.42
2018-12-03T02:00:35.892Z,99108.72
2018-12-03T02:01:37.654Z,99104.92
2018-12-03T02:02:39.424Z,99110.13
2018-12-03T02:03:41.216Z,99106.52
2018-12-03T02:04:42.998Z,99105.72
2018-12-03T02:05:44.754Z,99103.12
2018-12-03T02:06:46.505Z,99097.02
2018-12-03T02:07:48.253Z,99100.52
2018-12-03T02:08:50.014Z,99104.42
2018-12-03T02:09:51.804Z,99102.22
2018-12-03T02:10:53.542Z,99097.91
2018-12-03T02:11:55.303Z,99098.82
2018-12-03T02:12:57.053Z,99097.02
2018-12-03T02:13:58.812Z,99099.61
2018-12-03T02:15:00.602Z,99104.81
2018-12-03T02:16:02.360Z,99104.92
2018-12-03T02:17:04.116Z,99097.41
2018-12-03T02:18:05.877Z,99103.52
2018-12-03T02:19:07.638Z,99101.71
2018-12-03T02:20:09.417Z,99095.56
2018-12-03T02:21:11.161Z,99101.42
2018-12-03T02:22:12.902Z,99097.41
2018-12-03T02:23:14.666Z,99100.52
2018-12-03T02:24:16.414Z,99098.31
2018-12-03T02:25:18.183Z,99097.91
2018-12-03T02:26:19.948Z,99094.41
2018-12-03T02:27:21.695Z,99096.50
2018-12-03T02:28:23.436Z,99098.31
2018-12-03T02:29:26.401Z,99093.61
2018-12-03T02:30:28.257Z,99093.11
2018-12-03T02:31:30.040Z,99102.72
2018-12-03T02:32:32.852Z,99094.02
2018-12-03T02:33:34.608Z,99092.71
2018-12-03T02:34:36.914Z,99088.41
2018-12-03T02:35:38.687Z,99095.71
2018-12-03T02:36:40.458Z,99091.41
2018-12-03T02:37:42.205Z,99088.70
2018-12-03T02:38:43.988Z,99094.41
2018-12-03T02:39:45.757Z,99089.20
2018-12-03T02:40:47.532Z,99090.91
2018-12-03T02:41:49.278Z,99085.70
2018-12-03T02:42:51.042Z,99082.56
2018-12-03T02:43:54.354Z,99084.00
2018-12-03T02:44:56.112Z,99087.91
2018-12-03T02:45:57.900Z,99083.50
2018-12-03T02:46:59.665Z,99084.00
2018-12-03T02:48:01.438Z,99084.41
2018-12-03T02:49:03.198Z,99079.59
2018-12-03T02:50:04.966Z,99082.70
2018-12-03T02:51:06.739Z,99083.20
2018-12-03T02:52:08.492Z,99081.80
2018-12-03T02:53:10.259Z,99074.39
2018-12-03T02:54:12.010Z,99074.90
2018-12-03T02:55:14.261Z,99071.39
2018-12-03T02:56:16.024Z,99069.70
2018-12-03T02:57:17.772Z,99065.80
2018-12-03T02:58:19.522Z,99069.30
2018-12-03T02:59:21.284Z,99070.09
2018-12-03T03:00:23.046Z,99073.20
2018-12-03T03:01:24.848Z,99069.30
2018-12-03T03:02:26.594Z,99064.09
2018-12-03T03:03:28.357Z,99071.00
2018-12-03T03:04:30.131Z,99071.90
2018-12-03T03:05:31.871Z,99077.50
2018-12-03T03:06:33.630Z,99075.70
2018-12-03T03:07:35.394Z,99066.70
2018-12-03T03:08:37.141Z,99065.39
2018-12-03T03:09:39.474Z,99071.00
2018-12-03T03:10:41.266Z,99067.89
2018-12-03T03:11:43.072Z,99068.00
2018-12-03T03:12:44.836Z,99067.49
2018-12-03T03:13:46.598Z,99062.69
2018-12-03T03:14:48.346Z,99060.08
2018-12-03T03:15:50.098Z,99064.49
2018-12-03T03:17:59.938Z,99064.34
2018-12-03T03:19:02.132Z,99064.89
2018-12-03T03:20:03.952Z,99058.39
2018-12-03T03:21:05.950Z,99066.95
2018-12-03T03:22:07.732Z,99065.29
2018-12-03T03:23:09.484Z,99065.66
2018-12-03T03:24:11.234Z,99066.95
2018-12-03T03:25:12.994Z,99067.34
2018-12-03T03:26:14.754Z,99066.45
2018-12-03T03:27:17.036Z,99064.34
2018-12-03T03:28:18.816Z,99060.59
2018-12-03T03:29:20.698Z,99056.19
2018-12-03T03:30:22.473Z,99055.78
2018-12-03T03:31:24.251Z,99054.09
2018-12-03T03:32:26.039Z,99054.88
2018-12-03T03:33:27.800Z,99044.08
2018-12-03T03:34:29.566Z,99037.03
2018-12-03T03:35:31.316Z,99047.84
2018-12-03T03:36:33.061Z,99039.13
2018-12-03T03:37:34.854Z,99041.88
2018-12-03T03:38:36.612Z,99046.14
2018-12-03T03:39:38.366Z,99045.38
2018-12-03T03:40:40.115Z,99041.34
2018-12-03T03:41:41.864Z,99042.23
2018-12-03T03:42:43.642Z,99042.78
2018-12-03T03:43:45.388Z,99040.17
2018-12-03T03:44:47.144Z,99038.34
2018-12-03T03:45:48.892Z,99032.37
2018-12-03T03:46:50.640Z,99038.08
2018-12-03T03:47:52.416Z,99029.77
2018-12-03T03:48:54.661Z,99035.88
2018-12-03T03:49:56.552Z,99038.98
2018-12-03T03:50:58.296Z,99032.37
2018-12-03T03:52:00.052Z,99032.37
2018-12-03T03:53:01.845Z,99033.27
2018-12-03T03:54:03.598Z,99027.17
2018-12-03T03:55:05.354Z,99025.73
2018-12-03T03:56:07.120Z,99027.17
2018-12-03T03:57:08.887Z,99031.07
2018-12-03T03:58:10.661Z,99029.88
2018-12-03T03:59:12.401Z,99027.67
2018-12-03T04:00:14.164Z,99030.27
2018-12-03T04:01:16.099Z,99030.67
2018-12-03T04:02:17.857Z,99020.13
2018-12-03T04:03:20.721Z,99024.57
2018-12-03T04:04:22.469Z,99026.77
2018-12-03T04:05:24.218Z,99028.87
2018-12-03T04:06:25.971Z,99031.47
2018-12-03T04:07:27.735Z,99027.57
2018-12-03T04:08:29.512Z,99027.57
2018-12-03T04:09:31.265Z,99025.33
2018-12-03T04:10:33.024Z,99030.53
2018-12-03T04:11:34.788Z,99033.13
2018-12-03T04:12:36.542Z,99031.98
2018-12-03T04:13:38.356Z,99040.68
2018-12-03T04:14:40.117Z,99037.03
2018-12-03T04:15:44.769Z,99040.17
2018-12-03T04:16:46.513Z,99040.17
2018-12-03T04:17:48.285Z,99043.28
2018-12-03T04:18:50.055Z,99044.58
2018-12-03T04:19:51.811Z,99045.88
2018-12-03T04:20:53.578Z,99048.48
2018-12-03T04:21:55.354Z,99045.38
2018-12-03T04:22:57.106Z,99041.08
2018-12-03T04:23:58.878Z,99050.19
2018-12-03T04:25:00.655Z,99042.78
2018-12-03T04:26:02.426Z,99047.08
2018-12-03T04:27:04.181Z,99037.58
2018-12-03T04:28:05.926Z,99038.08
2018-12-03T04:29:07.703Z,99028.87
2018-12-03T04:30:09.473Z,99034.98
2018-12-03T04:31:11.247Z,99034.98
2018-12-03T04:32:13.004Z,99025.33
2018-12-03T04:33:14.973Z,99021.83
2018-12-03T04:34:16.753Z,99019.77
2018-12-03T04:35:18.502Z,99024.03
2018-12-03T04:36:20.284Z,99018.46
2018-12-03T04:37:22.061Z,99017.77
2018-12-03T04:38:23.809Z,99022.47
2018-12-03T04:39:25.633Z,99027.67
2018-12-03T04:40:27.415Z,99024.57
2018-12-03T04:41:29.167Z,99028.08
2018-12-03T04:42:30.919Z,99031.07
2018-12-03T04:43:32.686Z,99024.17
2018-12-03T04:44:34.474Z,99025.98
2018-12-03T04:45:37.525Z,99019.87
2018-12-03T04:46:39.282Z,99024.17
2018-12-03T04:47:41.043Z,99020.38
2018-12-03T04:48:42.804Z,99020.77
2018-12-03T04:49:44.617Z,99018.57
2018-12-03T04:50:46.376Z,99016.36
2018-12-03T04:51:49.261Z,99014.16
2018-12-03T04:52:51.027Z,99019.36
2018-12-03T04:53:52.774Z,99021.67
2018-12-03T04:54:54.538Z,99020.67
2018-12-03T04:55:56.298Z,99013.77
2018-12-03T04:56:58.065Z,99016.36
2018-12-03T04:57:59.830Z,99014.67
2018-12-03T04:59:01.573Z,99015.97
2018-12-03T05:00:03.367Z,99014.27
2018-12-03T05:01:05.146Z,99010.27
2018-12-03T05:02:06.895Z,99014.16
2018-12-03T05:03:08.654Z,99011.56
2018-12-03T05:04:10.414Z,99014.92
2018-12-03T05:05:12.211Z,99010.66
2018-12-03T05:06:13.986Z,99010.66
2018-12-03T05:07:15.734Z,99014.56
2018-12-03T05:08:17.493Z,99006.76
2018-12-03T05:09:19.259Z,99012.06
2018-12-03T05:10:21.050Z,99011.56
2018-12-03T05:11:22.820Z,99015.97
2018-12-03T05:12:24.588Z,99009.36
2018-12-03T05:13:26.352Z,99002.72
2018-12-03T05:14:28.110Z,99009.36
2018-12-03T05:15:29.888Z,99002.06
2018-12-03T05:16:31.721Z,99003.75
2018-12-03T05:17:33.452Z,99001.55
2018-12-03T05:18:35.213Z,99006.36
2018-12-03T05:19:36.975Z,99001.55
2018-12-03T05:20:38.753Z,98997.65
2018-12-03T05:21:40.515Z,99001.66
2018-12-03T05:22:42.273Z,98999.96
2018-12-03T05:23:44.034Z,99008.16
2018-12-03T05:24:45.789Z,98998.16
2018-12-03T05:25:47.571Z,99001.66
2018-12-03T05:26:49.864Z,98999.06
2018-12-03T05:27:51.634Z,99001.16
2018-12-03T05:28:53.413Z,98991.25
2018-12-03T05:29:55.189Z,98992.05
2018-12-03T05:30:56.979Z,98992.55
2018-12-03T05:31:58.733Z,98990.34
2018-12-03T05:33:00.499Z,98985.55
2018-12-03T05:34:02.263Z,98979.80
2018-12-03T05:35:04.023Z,98982.05
2018-12-03T05:36:05.815Z,98986.45
2018-12-03T05:37:07.577Z,98979.44
2018-12-03T05:38:09.328Z,98985.95
2018-12-03T05:39:11.091Z,98983.70
2018-12-03T05:40:12.857Z,98981.64
2018-12-03T05:41:15.171Z,98980.74
2018-12-03T05:42:16.917Z,98977.74
2018-12-03T05:43:18.679Z,98975.14
2018-12-03T05:44:20.439Z,98983.52
2018-12-03T05:45:22.189Z,98973.53
2018-12-03T05:46:23.987Z,98977.44
2018-12-03T05:47:26.369Z,98980.04
2018-12-03T05:48:28.124Z,98979.43
2018-12-03T05:49:29.887Z,98978.32
2018-12-03T05:50:31.650Z,98975.38
2018-12-03T05:51:33.431Z,98973.56
2018-12-03T05:52:35.205Z,98975.06
2018-12-03T05:53:36.961Z,98982.36
2018-12-03T05:54:38.720Z,98974.55
2018-12-03T05:55:40.480Z,98979.76
2018-12-03T05:56:42.273Z,98974.45
2018-12-03T05:57:44.033Z,98974.84
2018-12-03T05:58:45.826Z,98979.36
2018-12-03T05:59:47.597Z,98981.63
2018-12-03T06:00:49.341Z,98989.75
2018-12-03T06:01:51.121Z,98981.84
2018-12-03T06:02:52.901Z,98980.63
2018-12-03T06:03:54.666Z,98985.73
2018-12-03T06:04:57.380Z,98975.38
2018-12-03T06:05:59.147Z,98983.68
2018-12-03T06:07:00.930Z,98989.17
2018-12-03T06:08:02.681Z,98984.77
2018-12-03T06:09:05.084Z,98993.48
2018-12-03T06:10:06.841Z,98989.47
2018-12-03T06:11:08.615Z,98992.58
2018-12-03T06:12:10.410Z,98996.38
2018-12-03T06:13:12.178Z,99002.48
2018-12-03T06:14:15.683Z,98997.67
2018-12-03T06:15:17.462Z,98998.58
2018-12-03T06:16:19.222Z,98995.08
2018-12-03T06:17:21.410Z,98995.47
2018-12-03T06:18:22.838Z,99005.48
2018-12-03T06:19:24.582Z,98995.87
2018-12-03T06:20:26.369Z,98997.57
2018-12-03T06:21:28.131Z,98994.57
2018-12-03T06:22:29.917Z,98992.36
2018-12-03T06:23:31.694Z,98992.77
2018-12-03T06:24:33.456Z,98990.67
2018-12-03T06:25:35.282Z,98991.17
2018-12-03T06:26:37.042Z,98986.87
2018-12-03T06:27:38.826Z,98993.27
2018-12-03T06:28:40.607Z,98989.77
2018-12-03T06:29:42.374Z,98991.97
2018-12-03T06:30:44.130Z,98984.56
2018-12-03T06:31:45.892Z,98983.66
2018-12-03T06:32:47.660Z,98988.46
2018-12-03T06:33:49.412Z,98983.27
2018-12-03T06:34:52.328Z,98983.66
2018-12-03T06:35:54.096Z,98981.05
2018-12-03T06:36:55.851Z,98988.17
2018-12-03T06:37:57.634Z,98984.16
2018-12-03T06:38:59.387Z,98981.66
2018-12-03T06:40:01.162Z,98970.75
2018-12-03T06:41:02.928Z,98979.86
2018-12-03T06:42:04.682Z,98976.36
2018-12-03T06:43:06.454Z,98982.47
2018-12-03T06:44:09.218Z,98991.06
2018-12-03T06:45:10.967Z,98979.76
2018-12-03T06:46:12.725Z,98971.66
2018-12-03T06:47:14.484Z,98978.06
2018-12-03T06:48:16.260Z,98977.66
2018-12-03T06:49:18.030Z,98977.36
2018-12-03T06:50:19.772Z,98981.56
2018-12-03T06:51:22.925Z,98976.47
2018-12-03T06:52:24.758Z,98984.16
2018-12-03T06:53:26.548Z,98981.27
2018-12-03T06:54:28.319Z,98977.36
2018-12-03T06:55:30.703Z,98979.86
2018-12-03T06:56:32.445Z,98979.57
2018-12-03T06:57:34.181Z,98980.37
2018-12-03T06:58:35.965Z,98982.56
2018-12-03T06:59:37.743Z,98973.75
2018-12-03T07:00:39.534Z,98971.66
2018-12-03T07:01:41.284Z,98977.66
2018-12-03T07:02:43.056Z,98977.36
2018-12-03T07:03:44.851Z,98977.77
2018-12-03T07:04:46.595Z,98974.77
2018-12-03T07:05:50.081Z,98986.07
2018-12-03T07:06:51.859Z,98976.06
2018-12-03T07:07:53.633Z,98981.27
2018-12-03T07:08:55.411Z,98976.36
2018-12-03T07:09:57.177Z,98976.06
2018-12-03T07:10:58.919Z,98977.36
2018-12-03T07:12:00.679Z,98977.77
2018-12-03T07:13:02.447Z,98980.37
2018-12-03T07:14:04.241Z,98975.16
2018-12-03T07:15:06.016Z,98976.47
2018-12-03T07:16:07.773Z,98979.06
2018-12-03T07:17:10.752Z,98977.77
2018-12-03T07:18:12.522Z,98978.16
2018-12-03T07:19:14.326Z,98979.86
2018-12-03T07:20:16.088Z,98988.17
2018-12-03T07:21:17.855Z,98982.17
2018-12-03T07:22:21.363Z,98986.98
2018-12-03T07:23:23.107Z,98982.19
2018-12-03T07:24:26.020Z,98981.80
2018-12-03T07:25:28.885Z,98984.01
2018-12-03T07:26:30.632Z,98985.61
2018-12-03T07:27:32.403Z,98986.20
2018-12-03T07:28:34.171Z,98992.09
2018-12-03T07:29:35.959Z,98991.45
2018-12-03T07:30:37.757Z,98985.64
2018-12-03T07:31:39.522Z,98989.84
2018-12-03T07:32:41.405Z,98990.64
2018-12-03T07:33:43.170Z,98997.94
2018-12-03T07:34:44.950Z,98995.23
2018-12-03T07:35:46.702Z,98993.43
2018-12-03T07:36:48.449Z,98993.94
2018-12-03T07:37:50.214Z,98992.53
2018-12-03T07:38:51.969Z,98992.53
2018-12-03T07:39:53.761Z,98996.43
2018-12-03T07:40:55.524Z,98991.23
2018-12-03T07:41:57.279Z,98996.43
2018-12-03T07:42:59.056Z,98997.73
2018-12-03T07:44:00.827Z,98993.83
2018-12-03T07:45:03.082Z,98996.30
2018-12-03T07:46:04.827Z,99002.39
2018-12-03T07:47:06.602Z,99003.34
2018-12-03T07:48:08.357Z,98998.89
2018-12-03T07:49:10.120Z,99009.84
2018-12-03T07:50:11.922Z,99004.50
2018-12-03T07:51:13.685Z,99002.39
2018-12-03T07:52:15.419Z,99003.84
2018-12-03T07:53:17.182Z,99006.84
2018-12-03T07:54:18.940Z,99000.20
2018-12-03T07:55:20.744Z,99003.34
2018-12-03T07:56:22.563Z,99000.73
2018-12-03T07:57:25.789Z,99005.94
2018-12-03T07:58:27.537Z,99011.64
2018-12-03T07:59:29.290Z,99001.23
2018-12-03T08:00:31.107Z,99007.74
2018-12-03T08:01:32.886Z,99008.91
2018-12-03T08:02:34.652Z,99009.84
2018-12-03T08:03:36.421Z,99010.34
2018-12-03T08:04:38.187Z,99012.05
2018-12-03T08:05:39.965Z,99004.50
2018-12-03T08:06:42.134Z,99012.05
2018-12-03T08:07:44.086Z,99015.41
2018-12-03T08:08:46.015Z,99010.60
2018-12-03T08:09:47.785Z,99017.25
2018-12-03T08:10:49.566Z,99018.41
2018-12-03T08:11:51.334Z,99014.50
2018-12-03T08:12:53.096Z,99011.14
2018-12-03T08:13:55.384Z,99015.95
2018-12-03T08:14:57.154Z,99021.91
2018-12-03T08:15:58.952Z,99023.35
2018-12-03T08:17:00.703Z,99019.84
2018-12-03T08:18:06.257Z,99027.66
2018-12-03T08:19:08.017Z,99016.70
2018-12-03T08:20:09.784Z,99018.95
2018-12-03T08:21:11.561Z,99014.11
2018-12-03T08:22:13.321Z,99027.11
2018-12-03T08:23:15.093Z,99024.66
2018-12-03T08:24:16.859Z,99027.66
2018-12-03T08:25:18.668Z,99026.45
2018-12-03T08:26:20.432Z,99025.16
2018-12-03T08:27:22.201Z,99024.66
2018-12-03T08:28:27.022Z,99021.25
2018-12-03T08:29:30.178Z,99027.36
2018-12-03T08:30:32.050Z,99019.05
2018-12-03T08:31:33.810Z,99026.45
2018-12-03T08:32:35.561Z,99014.75
2018-12-03T08:33:38.671Z,99026.86
2018-12-03T08:34:40.448Z,99020.25
2018-12-03T08:35:42.737Z,99022.45
2018-12-03T08:36:45.505Z,99025.16
2018-12-03T08:37:47.276Z,99025.27
2018-12-03T08:38:49.065Z,99022.77
2018-12-03T08:39:50.825Z,99026.16
2018-12-03T08:40:52.926Z,99026.56
2018-12-03T08:41:54.714Z,99029.06
2018-12-03T08:42:56.504Z,99032.97
2018-12-03T08:43:58.280Z,99029.86
2018-12-03T08:45:00.050Z,99027.25
2018-12-03T08:46:03.155Z,99028.95
2018-12-03T08:47:05.674Z,99032.97
2018-12-03T08:48:07.437Z,99028.95
2018-12-03T08:49:09.189Z,99027.66
2018-12-03T08:50:11.024Z,99033.77
2018-12-03T08:51:12.921Z,99033.77
2018-12-03T08:52:14.711Z,99029.86
2018-12-03T08:53:16.586Z,99033.36
2018-12-03T08:54:18.348Z,99038.06
2018-12-03T08:55:20.104Z,99036.36
2018-12-03T08:56:21.895Z,99032.06
2018-12-03T08:57:23.744Z,99038.97
2018-12-03T08:58:25.583Z,99040.66
2018-12-03T08:59:27.391Z,99033.77
2018-12-03T09:00:29.181Z,99035.06
2018-12-03T09:01:31.280Z,99036.36
2018-12-03T09:02:34.018Z,99034.66
2018-12-03T09:03:35.819Z,99042.87
2018-12-03T09:04:37.571Z,99044.67
2018-12-03T09:05:39.378Z,99042.87
2018-12-03T09:06:41.173Z,99037.66
2018-12-03T09:07:42.964Z,99045.47
2018-12-03T09:08:44.725Z,99039.36
2018-12-03T09:09:46.493Z,99049.38
2018-12-03T09:10:48.256Z,99045.69
2018-12-03T09:11:50.021Z,99049.08
2018-12-03T09:12:51.896Z,99044.67
2018-12-03T09:13:53.677Z,99049.48
2018-12-03T09:14:55.430Z,99052.88
2018-12-03T09:15:57.192Z,99050.27
2018-12-03T09:17:02.461Z,99052.69
2018-12-03T09:18:00.793Z,99047.09
2018-12-03T09:19:02.582Z,99049.19
2018-12-03T09:20:04.346Z,99057.50
2018-12-03T09:21:08.653Z,99048.28
2018-12-03T09:22:10.426Z,99050.89
2018-12-03T09:23:12.222Z,99048.69
2018-12-03T09:24:15.170Z,99051.78
2018-12-03T09:25:18.226Z,99056.20
2018-12-03T09:26:19.051Z,99050.09
2018-12-03T09:27:20.820Z,99049.98
2018-12-03T09:28:22.597Z,99055.19
2018-12-03T09:29:24.363Z,99055.19
2018-12-03T09:30:27.940Z,99054.28
2018-12-03T09:31:27.953Z,99064.30
2018-12-03T09:32:29.731Z,99058.59
2018-12-03T09:33:31.513Z,99061.19
2018-12-03T09:34:33.291Z,99056.89
2018-12-03T09:35:35.042Z,99067.69
2018-12-03T09:36:36.793Z,99064.69
2018-12-03T09:37:38.881Z,99064.19
2018-12-03T09:38:40.657Z,99068.09
2018-12-03T09:39:42.452Z,99061.59
2018-12-03T09:40:44.204Z,99060.28
2018-12-03T09:41:45.971Z,99069.89
2018-12-03T09:42:47.753Z,99067.00
2018-12-03T09:43:49.656Z,99068.30
2018-12-03T09:44:51.421Z,99067.80
2018-12-03T09:45:53.193Z,99065.99
2018-12-03T09:46:54.951Z,99066.90
2018-12-03T09:47:56.715Z,99071.09
2018-12-03T09:48:58.495Z,99067.69
2018-12-03T09:50:00.295Z,99074.59
2018-12-03T09:51:02.047Z,99065.99
2018-12-03T09:52:03.801Z,99069.89
2018-12-03T09:53:05.569Z,99065.99
2018-12-03T09:54:07.324Z,99072.50
2018-12-03T09:55:09.201Z,99066.90
2018-12-03T09:56:11.011Z,99065.99
2018-12-03T09:57:12.770Z,99064.00
2018-12-03T09:58:14.535Z,99067.00
2018-12-03T09:59:16.316Z,99068.70
2018-12-03T10:00:18.086Z,99066.09
2018-12-03T10:01:19.859Z,99063.09
2018-12-03T10:02:21.615Z,99061.41
2018-12-03T10:03:23.769Z,99065.20
2018-12-03T10:04:30.369Z,99070.40
2018-12-03T10:05:32.138Z,99065.99
2018-12-03T10:06:33.897Z,99066.90
2018-12-03T10:07:35.661Z,99071.20
2018-12-03T10:08:37.415Z,99065.59
2018-12-03T10:09:39.194Z,99061.80
2018-12-03T10:10:40.945Z,99067.00
2018-12-03T10:11:42.767Z,99062.30
2018-12-03T10:12:44.547Z,99058.40
2018-12-03T10:13:46.316Z,99062.81
2018-12-03T10:14:49.586Z,99056.30
2018-12-03T10:15:51.432Z,99057.31
2018-12-03T10:16:53.201Z,99059.41
2018-12-03T10:17:54.962Z,99055.00
2018-12-03T10:19:00.331Z,99055.00
2018-12-03T10:19:59.370Z,99055.80
2018-12-03T10:21:01.121Z,99055.00
2018-12-03T10:22:02.892Z,99051.50
2018-12-03T10:23:04.662Z,99052.80
2018-12-03T10:24:06.440Z,99049.80
2018-12-03T10:25:08.242Z,99054.89
2018-12-03T10:26:10.363Z,99060.50
2018-12-03T10:27:12.122Z,99062.20
2018-12-03T10:28:13.903Z,99050.89
2018-12-03T10:29:16.166Z,99053.09
2018-12-03T10:30:18.022Z,99053.99
2018-12-03T10:31:19.792Z,99050.70
2018-12-03T10:32:21.710Z,99048.78
2018-12-03T10:33:23.517Z,99050.20
2018-12-03T10:34:25.307Z,99049.29
2018-12-03T10:35:27.101Z,99053.59
2018-12-03T10:36:28.848Z,99042.78
2018-12-03T10:37:30.618Z,99058.80
2018-12-03T10:38:32.388Z,99058.00
2018-12-03T10:39:34.229Z,99056.70
2018-12-03T10:40:35.999Z,99059.70
2018-12-03T10:41:37.764Z,99052.40
2018-12-03T10:42:39.577Z,99053.70
2018-12-03T10:43:41.336Z,99060.60
2018-12-03T10:44:43.096Z,99055.00
2018-12-03T10:45:44.845Z,99049.69
2018-12-03T10:46:46.594Z,99044.09
2018-12-03T10:47:48.369Z,99043.58
2018-12-03T10:48:50.122Z,99050.89
2018-12-03T10:49:52.786Z,99047.48
2018-12-03T10:50:54.547Z,99050.89
2018-12-03T10:51:56.306Z,99044.88
2018-12-03T10:52:58.076Z,99041.78
2018-12-03T10:53:59.850Z,99051.78
2018-12-03T10:55:01.643Z,99047.09
2018-12-03T10:56:03.443Z,99046.19
2018-12-03T10:57:05.234Z,99051.89
2018-12-03T10:58:07.722Z,99050.20
2018-12-03T10:59:10.050Z,99042.78
2018-12-03T11:00:11.922Z,99044.09
2018-12-03T11:01:19.225Z,99051.89
2018-12-03T11:02:26.471Z,99047.48
2018-12-03T11:03:33.754Z,99054.89
2018-12-03T11:04:40.997Z,99052.80
2018-12-03T11:05:48.285Z,99048.39
2018-12-03T11:06:50.067Z,99051.09
2018-12-03T11:07:51.830Z,99048.89
2018-12-03T11:08:53.595Z,99049.80
2018-12-03T11:09:55.360Z,99051.60
2018-12-03T11:10:58.677Z,99047.20
2018-12-03T11:12:00.454Z,99047.09
2018-12-03T11:13:02.211Z,99046.69
2018-12-03T11:14:03.973Z,99045.89
2018-12-03T11:15:05.731Z,99044.09
2018-12-03T11:16:07.515Z,99048.89
2018-12-03T11:17:09.270Z,99043.69
2018-12-03T11:18:11.022Z,99046.69
2018-12-03T11:19:12.787Z,99050.20
2018-12-03T11:20:14.642Z,99038.48
2018-12-03T11:21:16.445Z,99044.59
2018-12-03T11:22:18.201Z,99041.09
2018-12-03T11:23:19.959Z,99045.39
2018-12-03T11:24:21.723Z,99038.88
2018-12-03T11:25:23.560Z,99041.98
2018-12-03T11:26:25.467Z,99044.98
2018-12-03T11:27:27.248Z,99042.78
2018-12-03T11:28:29.049Z,99044.98
2018-12-03T11:29:30.818Z,99039.78
2018-12-03T11:30:32.595Z,99044.98
2018-12-03T11:31:34.364Z,99044.09
2018-12-03T11:32:36.123Z,99037.08
2018-12-03T11:33:37.911Z,99038.98
2018-12-03T11:34:39.714Z,99026.48
2018-12-03T11:35:41.487Z,99032.19
2018-12-03T11:36:43.269Z,99036.09
2018-12-03T11:37:45.039Z,99031.28
2018-12-03T11:38:46.824Z,99032.88
2018-12-03T11:39:55.031Z,99028.98
2018-12-03T11:40:56.816Z,99042.89
2018-12-03T11:41:58.615Z,99034.58
2018-12-03T11:43:00.445Z,99044.09
2018-12-03T11:44:02.211Z,99037.98
2018-12-03T11:45:03.977Z,99042.78
2018-12-03T11:46:05.753Z,99038.38
2018-12-03T11:47:09.359Z,99027.28
2018-12-03T11:48:11.139Z,99034.19
2018-12-03T11:49:12.892Z,99034.98
2018-12-03T11:50:14.659Z,99037.98
2018-12-03T11:51:16.437Z,99034.48
2018-12-03T11:52:18.265Z,99043.30
2018-12-03T11:53:20.030Z,99038.48
2018-12-03T11:54:21.800Z,99037.58
2018-12-03T11:55:23.580Z,99026.77
2018-12-03T11:56:25.346Z,99038.09
2018-12-03T11:57:27.642Z,99032.59
2018-12-03T11:58:29.420Z,99033.78
2018-12-03T11:59:31.167Z,99043.30
2018-12-03T12:00:32.926Z,99039.39
2018-12-03T12:01:34.701Z,99041.98
2018-12-03T12:02:36.473Z,99037.19
2018-12-03T12:03:42.999Z,99036.28
2018-12-03T12:04:44.421Z,99032.88
2018-12-03T12:05:46.179Z,99037.58
2018-12-03T12:06:47.968Z,99042.78
2018-12-03T12:07:49.752Z,99038.09
2018-12-03T12:08:51.607Z,99043.30